Flight Track Log - Related Links

Times and Time Zones

All times are in EDT time to prevent confusion due to time zone crossing. See the SWA685 flight status page for this flight to view local times or setup timezone preferences in your user account.

Time Position Orientation Groundspeed Altitude Reporting Facility
EDT Latitude Longitude Course Direction KTS MPH feet Rate Location/Type
Sat 08:06:51 AM 38.7500 -90.3833 311° West 149 171 1,600  Level Gateway (St. Louis) TRACON
Sat 08:07:51 AM 38.7833 -90.4333 311° West 192 221 2,900 1,579 Climbing Gateway (St. Louis) TRACON
Sat 08:08:26 AM 38.7942 -90.4697 291° West 210 242 4,100 1,750 Climbing Kansas City Center
Sat 08:09:27 AM 38.8144 -90.5536 287° West 241 277 5,700 2,529 Climbing Kansas City Center
Sat 08:10:27 AM 38.8386 -90.6464 289° West 268 308 9,200 2,579 Climbing Kansas City Center
Sat 08:11:28 AM 38.8656 -90.7519 288° West 311 358 10,900 2,410 Climbing Kansas City Center
Sat 08:12:29 AM 38.8953 -90.8708 288° West 349 402 14,100 2,975 Climbing Kansas City Center
Sat 08:13:29 AM 38.9264 -90.9953 288° West 361 415 16,900 2,727 Climbing Kansas City Center
Sat 08:14:30 AM 38.9497 -91.1317 282° West 386 444 19,600 2,656 Climbing Kansas City Center
Sat 08:15:31 AM 38.9639 -91.2703 278° West 392 451 22,300 2,380 Climbing Kansas City Center
Sat 08:16:31 AM 38.9783 -91.4133 277° West 401 461 24,400 2,132 Climbing Kansas City Center
Sat 08:17:32 AM 38.9978 -91.5919 278° West 417 480 26,600 1,820 Climbing Kansas City Center
Sat 08:18:33 AM 39.0131 -91.7408 278° West 428 493 28,100 1,377 Climbing Kansas City Center
Sat 08:19:34 AM 39.0294 -91.9017 278° West 445 512 29,400 1,488 Climbing Kansas City Center
Sat 08:20:34 AM 39.0458 -92.0631 277° West 453 521 31,100 1,835 Climbing Kansas City Center
Sat 08:21:35 AM 39.0614 -92.2242 277° West 455 524 33,100 1,770 Climbing Kansas City Center
Sat 08:22:36 AM 39.0775 -92.3819 278° West 451 519 34,700 1,820 Climbing Kansas City Center
Sat 08:23:37 AM 39.0922 -92.5372 277° West 444 511 36,800 1,623 Climbing Kansas City Center
Sat 08:24:38 AM 39.1069 -92.6856 277° West 431 496 38,000 590 Climbing Kansas City Center
Sat 08:25:39 AM 39.1211 -92.8356 277° West 420 483 38,000  Level Kansas City Center
Sat 08:26:39 AM 39.1314 -92.9839 275° West 419 482 38,000  Level Kansas City Center
Sat 08:27:40 AM 39.1278 -93.1342 268° West 423 487 38,000  Level Kansas City Center
Sat 08:28:41 AM 39.1244 -93.2839 268° West 420 483 38,000  Level Kansas City Center
Sat 08:29:42 AM 39.1208 -93.4575 269° West 418 481 38,000  Level Kansas City Center
Sat 08:30:43 AM 39.1189 -93.5997 269° West 415 478 38,000  Level Kansas City Center
Sat 08:31:43 AM 39.1164 -93.7428 269° West 416 479 38,000  Level Kansas City Center
Sat 08:32:44 AM 39.1106 -93.9097 267° West 417 480 38,000  Level Kansas City Center
Sat 08:33:45 AM 39.1069 -94.0522 268° West 419 482 38,000  Level Kansas City Center
Sat 08:34:46 AM 39.1025 -94.1953 268° West 417 480 38,000  Level Kansas City Center
Sat 08:35:47 AM 39.0975 -94.3628 268° West 419 482 38,000  Level Kansas City Center
Sat 08:36:48 AM 39.0922 -94.5058 267° West 417 480 38,000  Level Kansas City Center
Sat 08:37:49 AM 39.0869 -94.6489 267° West 418 481 38,000  Level Kansas City Center
Sat 08:38:49 AM 39.0819 -94.8175 268° West 421 484 38,000  Level Kansas City Center
Sat 08:39:50 AM 39.0775 -94.9608 268° West 419 482 38,000  Level Kansas City Center
Sat 08:40:51 AM 39.0714 -95.1156 267° West 414 476 38,000  Level Kansas City Center
Sat 08:41:52 AM 39.0650 -95.2658 267° West 419 482 38,000  Level Kansas City Center
Sat 08:42:53 AM 39.0600 -95.4281 268° West 422 486 38,000  Level Kansas City Center
Sat 08:43:54 AM 39.0550 -95.5653 267° West 418 481 38,000  Level Kansas City Center
Sat 08:44:55 AM 39.0492 -95.7103 267° West 422 486 38,000  Level Kansas City Center
Sat 08:45:56 AM 39.0436 -95.8800 268° West 425 489 38,000  Level Kansas City Center
Sat 08:46:57 AM 39.0375 -96.0264 267° West 427 491 38,000  Level Kansas City Center
Sat 08:47:58 AM 39.0303 -96.1728 266° West 427 491 38,000  Level Kansas City Center
Sat 08:48:59 AM 39.0225 -96.3425 267° West 425 489 38,000  Level Kansas City Center
Sat 08:50:00 AM 39.0156 -96.4878 267° West 425 489 38,000  Level Kansas City Center
Sat 08:51:01 AM 39.0078 -96.6328 266° West 425 489 38,000  Level Kansas City Center
Sat 08:52:02 AM 39.0000 -96.8000 267° West 421 484 38,000  Level Kansas City Center
Sat 08:53:03 AM 38.9925 -96.9425 266° West 419 482 38,000  Level Kansas City Center
Sat 08:54:04 AM 38.9842 -97.1094 266° West 419 482 38,000  Level Kansas City Center
Sat 08:55:05 AM 38.9758 -97.2522 266° West 423 487 38,000  Level Kansas City Center
Sat 08:56:06 AM 38.9678 -97.4003 266° West 419 482 38,000  Level Kansas City Center
Sat 08:57:07 AM 38.9594 -97.5606 266° West 414 476 38,000  Level Kansas City Center
Sat 08:58:08 AM 38.9514 -97.7019 266° West 414 476 38,000  Level Kansas City Center
Sat 08:59:11 AM 38.9403 -97.8700 265° West 413 475 38,000  Level Kansas City Center
Sat 09:00:13 AM 38.9314 -98.0139 266° West 410 472 38,000  Level Kansas City Center
Sat 09:01:14 AM 38.9231 -98.1594 266° West 410 472 38,000  Level Kansas City Center
Sat 09:02:15 AM 38.9142 -98.3039 266° West 408 470 38,000  Level Kansas City Center
Sat 09:03:16 AM 38.9053 -98.4503 266° West 412 474 38,000  Level Kansas City Center
Sat 09:04:17 AM 38.8958 -98.5969 265° West 414 476 38,000  Level Kansas City Center
Sat 09:05:18 AM 38.8864 -98.7442 265° West 415 478 38,000  Level Kansas City Center
Sat 09:06:20 AM 38.8761 -98.8919 265° West 416 479 38,000  Level Kansas City Center
Sat 09:07:21 AM 38.8650 -99.0406 265° West 419 482 38,000  Level Kansas City Center
Sat 09:08:22 AM 38.8547 -99.1897 265° West 421 484 38,000  Level Kansas City Center
Sat 09:09:23 AM 38.8478 -99.3397 267° West 422 486 38,000  Level Kansas City Center
Sat 09:10:24 AM 38.8508 -99.5175 271° West 416 479 38,000  Level Kansas City Center
Sat 09:11:26 AM 38.8531 -99.6519 271° West 418 481 38,000  Level Kansas City Center
Sat 09:12:27 AM 38.8619 -99.8161 274° West 415 478 38,000  Level Kansas City Center
Sat 09:13:28 AM 38.8686 -99.9578 274° West 416 479 38,000  Level Kansas City Center
Sat 09:14:29 AM 38.8758 -100.1200 273° West 412 474 38,000  Level Kansas City Center
Sat 09:15:03 AM 38.8794 -100.1872 274° West 410 472 38,000  Level Denver Center
Sat 09:16:04 AM 38.8850 -100.3275 273° West 413 475 38,000  Level Denver Center
Sat 09:17:04 AM 38.8919 -100.4889 273° West 410 472 38,000  Level Denver Center
Sat 09:18:17 AM 38.8978 -100.6292 273° West 412 474 38,000  Level Denver Center
Sat 09:19:18 AM 38.9061 -100.8181 273° West 417 480 38,000  Level Denver Center
Sat 09:20:18 AM 38.9117 -100.9594 273° West 416 479 38,000  Level Denver Center
Sat 09:21:19 AM 38.9169 -101.1014 273° West 417 480 38,000  Level Denver Center
Sat 09:22:20 AM 38.9231 -101.2672 273° West 417 480 38,000  Level Denver Center
Sat 09:23:21 AM 38.9283 -101.4092 273° West 416 479 38,000  Level Denver Center
Sat 09:24:21 AM 38.9333 -101.5519 273° West 419 482 38,000  Level Denver Center
Sat 09:25:22 AM 38.9583 -101.7117 281° West 412 474 38,000  Level Denver Center
Sat 09:26:23 AM 38.9822 -101.8503 283° West 415 478 38,000  Level Denver Center
Sat 09:27:23 AM 39.0064 -101.9869 283° West 413 475 38,000  Level Denver Center
Sat 09:28:24 AM 39.0342 -102.1483 283° West 413 475 38,000  Level Denver Center
Sat 09:29:25 AM 39.0569 -102.2867 282° West 414 476 38,000  Level Denver Center
Sat 09:30:26 AM 39.0839 -102.4481 282° West 414 476 38,000  Level Denver Center
Sat 09:31:26 AM 39.1075 -102.5875 282° West 415 478 38,000 -1,041 Level Denver Center
Sat 09:32:27 AM 39.1300 -102.7236 282° West 408 470 35,900 -2,557 Descending Denver Center
Sat 09:33:28 AM 39.1550 -102.8786 282° West 404 465 32,800 -2,705 Descending Denver Center
Sat 09:34:29 AM 39.1783 -103.0231 282° West 410 472 30,400 -2,015 Descending Denver Center
Sat 09:35:42 AM 39.2014 -103.1606 282° West 398 458 28,300 -2,060 Descending Denver Center
Sat 09:36:43 AM 39.2267 -103.3244 281° West 390 449 25,800 -2,281 Descending Denver Center
Sat 09:37:43 AM 39.2486 -103.4592 282° West 384 442 23,700 -2,033 Descending Denver Center
Sat 09:38:44 AM 39.2683 -103.5889 281° West 371 427 21,700 -1,918 Descending Denver Center
Sat 09:39:45 AM 39.2922 -103.7150 284° West 363 418 19,800 -1,820 Descending Denver Center
Sat 09:40:46 AM 39.3428 -103.8219 301° West 346 398 18,000 -1,525 Descending Denver Center
Sat 09:41:47 AM 39.3956 -103.9397 300° West 347 399 16,700 -1,388 Descending Denver Center
Sat 09:42:47 AM 39.4028 -104.0600 274° West 331 381 15,200 -1,488 Descending Denver Center
Sat 09:43:48 AM 39.4067 -104.1792 272° West 332 382 13,700 -1,180 Descending Denver Center
Sat 09:44:49 AM 39.4142 -104.2886 275° West 312 359 12,800 -1,164 Descending Denver Center
Sat 09:46:02 AM 39.4642 -104.3933 302° West 281 323 11,100 -1,433 Descending Denver Center
Sat 09:47:03 AM 39.5086 -104.4756 305° West 282 325 9,600 -1,426 Descending Denver Center
Sat 09:48:04 AM 39.5781 -104.5236 332° Northwest 283 326 8,200 -984 Descending Denver Center
Sat 09:49:05 AM 39.6453 -104.5697 332° Northwest 248 285 7,600 -590 Descending Denver Center
Sat 09:50:06 AM 39.6992 -104.6072 332° Northwest 213 245 7,000 -344 Descending Denver Center
Sat 09:51:07 AM 39.7483 -104.6392 333° Northwest 196 226 6,900 -492 Descending Denver Center
Sat 09:52:08 AM 39.7972 -104.6419 358° North 171 197 6,000 -787 Descending Denver Center
Sat 09:53:09 AM 39.8350 -104.6419 360° North 150 173 5,300 -689 Descending Denver Center
Sat 09:55:00 AM 39.8500 -104.6667 North  Level FlightAware Approximate
Sat 10:02:00 AM 39.8617 -104.6732 North  Level Estimated
Sat 10:03:00 AM 39.8617 -104.6732 North  Level Estimated
Sat 10:04:00 AM 39.8617 -104.6732 North  Level Estimated

Login

Don't have an account? Register now (free) for customized features, flight alerts, and more!